sensor_id;sensor_type;location;lat;lon;timestamp;pressure;altitude;pressure_sealevel;temperature;humidity
74573;BME280;63071;51.526;-0.134;2022-12-18T00:00:45;101839.84;;;22.47;23.63
74573;BME280;63071;51.526;-0.134;2022-12-18T00:03:15;101850.59;;;22.51;23.88
74573;BME280;63071;51.526;-0.134;2022-12-18T00:05:50;101855.50;;;22.49;24.18
74573;BME280;63071;51.526;-0.134;2022-12-18T00:08:17;101847.06;;;22.47;23.63
74573;BME280;63071;51.526;-0.134;2022-12-18T00:10:43;101837.63;;;22.49;24.08
74573;BME280;63071;51.526;-0.134;2022-12-18T00:13:09;101831.53;;;22.49;23.72
74573;BME280;63071;51.526;-0.134;2022-12-18T00:15:36;101826.53;;;22.47;24.11
74573;BME280;63071;51.526;-0.134;2022-12-18T00:18:02;101824.63;;;22.48;24.24
74573;BME280;63071;51.526;-0.134;2022-12-18T00:20:27;101834.50;;;22.47;23.59
74573;BME280;63071;51.526;-0.134;2022-12-18T00:22:54;101816.19;;;22.46;23.70
74573;BME280;63071;51.526;-0.134;2022-12-18T00:25:20;101810.09;;;22.45;23.91
74573;BME280;63071;51.526;-0.134;2022-12-18T00:27:45;101813.97;;;22.48;23.69
74573;BME280;63071;51.526;-0.134;2022-12-18T00:30:11;101812.44;;;22.47;23.52
74573;BME280;63071;51.526;-0.134;2022-12-18T00:32:36;101808.63;;;22.48;24.05
74573;BME280;63071;51.526;-0.134;2022-12-18T00:35:02;101813.88;;;22.44;24.04
74573;BME280;63071;51.526;-0.134;2022-12-18T00:37:28;101812.75;;;22.45;23.75
74573;BME280;63071;51.526;-0.134;2022-12-18T00:39:54;101804.00;;;22.45;23.55
74573;BME280;63071;51.526;-0.134;2022-12-18T00:42:19;101811.31;;;22.48;23.67
74573;BME280;63071;51.526;-0.134;2022-12-18T00:45:03;101802.44;;;22.44;23.64
74573;BME280;63071;51.526;-0.134;2022-12-18T00:47:29;101798.25;;;22.43;24.11
74573;BME280;63071;51.526;-0.134;2022-12-18T00:49:54;101798.56;;;22.41;23.96
74573;BME280;63071;51.526;-0.134;2022-12-18T00:52:20;101804.66;;;22.42;24.04
74573;BME280;63071;51.526;-0.134;2022-12-18T00:54:45;101807.44;;;22.45;24.21
74573;BME280;63071;51.526;-0.134;2022-12-18T00:57:11;101795.66;;;22.46;23.54
74573;BME280;63071;51.526;-0.134;2022-12-18T00:59:36;101798.69;;;22.45;24.15
74573;BME280;63071;51.526;-0.134;2022-12-18T01:02:02;101797.44;;;22.42;23.84
74573;BME280;63071;51.526;-0.134;2022-12-18T01:04:27;101802.53;;;22.47;23.95
74573;BME280;63071;51.526;-0.134;2022-12-18T01:06:53;101797.22;;;22.47;23.95
74573;BME280;63071;51.526;-0.134;2022-12-18T01:09:19;101799.13;;;22.47;24.15
74573;BME280;63071;51.526;-0.134;2022-12-18T01:11:44;101797.53;;;22.46;24.19
74573;BME280;63071;51.526;-0.134;2022-12-18T01:14:10;101792.56;;;22.44;23.68
74573;BME280;63071;51.526;-0.134;2022-12-18T01:16:35;101797.88;;;22.44;23.63
74573;BME280;63071;51.526;-0.134;2022-12-18T01:19:01;101779.66;;;22.46;23.55
74573;BME280;63071;51.526;-0.134;2022-12-18T01:21:26;101786.13;;;22.45;23.77
74573;BME280;63071;51.526;-0.134;2022-12-18T01:23:54;101781.13;;;22.44;23.85
74573;BME280;63071;51.526;-0.134;2022-12-18T01:26:21;101777.38;;;22.45;23.58
74573;BME280;63071;51.526;-0.134;2022-12-18T01:28:47;101771.69;;;22.46;24.19
74573;BME280;63071;51.526;-0.134;2022-12-18T01:31:17;101779.22;;;22.44;23.55
74573;BME280;63071;51.526;-0.134;2022-12-18T01:33:43;101767.47;;;22.45;24.13
74573;BME280;63071;51.526;-0.134;2022-12-18T01:36:24;101760.59;;;22.44;23.55
74573;BME280;63071;51.526;-0.134;2022-12-18T01:38:50;101756.06;;;22.45;23.85
74573;BME280;63071;51.526;-0.134;2022-12-18T01:41:19;101751.50;;;22.45;23.87
74573;BME280;63071;51.526;-0.134;2022-12-18T01:43:51;101749.50;;;22.42;23.77
74573;BME280;63071;51.526;-0.134;2022-12-18T01:46:26;101744.97;;;22.43;24.22
74573;BME280;63071;51.526;-0.134;2022-12-18T01:49:00;101723.88;;;22.37;24.13
74573;BME280;63071;51.526;-0.134;2022-12-18T01:51:30;101728.19;;;22.42;23.93
74573;BME280;63071;51.526;-0.134;2022-12-18T01:53:57;101727.09;;;22.43;23.68
74573;BME280;63071;51.526;-0.134;2022-12-18T01:56:24;101736.97;;;22.43;23.92
74573;BME280;63071;51.526;-0.134;2022-12-18T01:59:02;101724.41;;;22.43;24.16
74573;BME280;63071;51.526;-0.134;2022-12-18T02:01:29;101730.94;;;22.46;23.94
74573;BME280;63071;51.526;-0.134;2022-12-18T02:03:55;101729.75;;;22.43;23.91
74573;BME280;63071;51.526;-0.134;2022-12-18T02:06:34;101739.28;;;22.44;23.88
74573;BME280;63071;51.526;-0.134;2022-12-18T02:09:15;101749.94;;;22.44;24.13
74573;BME280;63071;51.526;-0.134;2022-12-18T02:12:00;101748.06;;;22.45;23.69
74573;BME280;63071;51.526;-0.134;2022-12-18T02:14:40;101745.84;;;22.47;23.51
74573;BME280;63071;51.526;-0.134;2022-12-18T02:17:11;101749.59;;;22.46;24.17
74573;BME280;63071;51.526;-0.134;2022-12-18T02:26:02;101764.81;;;22.45;23.79
74573;BME280;63071;51.526;-0.134;2022-12-18T02:28:03;101760.59;;;22.44;24.13
74573;BME280;63071;51.526;-0.134;2022-12-18T02:30:34;101766.00;;;22.48;24.10
74573;BME280;63071;51.526;-0.134;2022-12-18T02:33:04;101765.91;;;22.44;23.67
74573;BME280;63071;51.526;-0.134;2022-12-18T02:35:33;101766.72;;;22.45;24.13
74573;BME280;63071;51.526;-0.134;2022-12-18T02:38:03;101762.91;;;22.46;24.06
74573;BME280;63071;51.526;-0.134;2022-12-18T02:40:30;101767.03;;;22.43;24.00
74573;BME280;63071;51.526;-0.134;2022-12-18T02:43:06;101776.94;;;22.43;24.01
74573;BME280;63071;51.526;-0.134;2022-12-18T02:45:32;101790.31;;;22.46;24.16
74573;BME280;63071;51.526;-0.134;2022-12-18T02:47:57;101784.22;;;22.46;23.53
74573;BME280;63071;51.526;-0.134;2022-12-18T02:50:35;101789.44;;;22.42;24.05
74573;BME280;63071;51.526;-0.134;2022-12-18T02:55:46;101789.13;;;22.44;24.10
74573;BME280;63071;51.526;-0.134;2022-12-18T02:58:32;101799.34;;;22.42;23.67
74573;BME280;63071;51.526;-0.134;2022-12-18T03:03:55;101790.69;;;22.45;24.01
74573;BME280;63071;51.526;-0.134;2022-12-18T03:06:30;101786.47;;;22.44;23.78
74573;BME280;63071;51.526;-0.134;2022-12-18T03:09:02;101771.59;;;22.43;24.18
74573;BME280;63071;51.526;-0.134;2022-12-18T03:11:36;101771.25;;;22.44;24.08
74573;BME280;63071;51.526;-0.134;2022-12-18T03:14:25;101776.56;;;22.44;23.62
74573;BME280;63071;51.526;-0.134;2022-12-18T03:16:57;101749.84;;;22.40;23.93
74573;BME280;63071;51.526;-0.134;2022-12-18T03:19:27;101742.97;;;22.39;23.49
74573;BME280;63071;51.526;-0.134;2022-12-18T03:21:57;101747.97;;;22.41;24.18
74573;BME280;63071;51.526;-0.134;2022-12-18T03:24:26;101744.59;;;22.44;23.44
74573;BME280;63071;51.526;-0.134;2022-12-18T03:26:58;101747.63;;;22.43;23.67
74573;BME280;63071;51.526;-0.134;2022-12-18T03:29:32;101752.59;;;22.44;23.36
74573;BME280;63071;51.526;-0.134;2022-12-18T03:32:15;101744.97;;;22.43;23.67
74573;BME280;63071;51.526;-0.134;2022-12-18T03:34:45;101734.66;;;22.41;23.95
74573;BME280;63071;51.526;-0.134;2022-12-18T03:37:13;101731.66;;;22.43;23.76
74573;BME280;63071;51.526;-0.134;2022-12-18T03:39:38;101728.13;;;22.38;23.81
74573;BME280;63071;51.526;-0.134;2022-12-18T03:42:10;101723.22;;;22.40;23.68
74573;BME280;63071;51.526;-0.134;2022-12-18T03:47:29;101715.66;;;22.43;23.94
74573;BME280;63071;51.526;-0.134;2022-12-18T03:52:57;101735.50;;;22.45;23.88
74573;BME280;63071;51.526;-0.134;2022-12-18T03:55:30;101726.22;;;22.39;24.09
74573;BME280;63071;51.526;-0.134;2022-12-18T03:57:59;101721.00;;;22.43;24.09
74573;BME280;63071;51.526;-0.134;2022-12-18T04:00:25;101716.00;;;22.41;23.54
74573;BME280;63071;51.526;-0.134;2022-12-18T04:02:54;101720.88;;;22.39;23.58
74573;BME280;63071;51.526;-0.134;2022-12-18T04:05:24;101711.44;;;22.42;23.92
74573;BME280;63071;51.526;-0.134;2022-12-18T04:07:52;101712.19;;;22.42;24.10
74573;BME280;63071;51.526;-0.134;2022-12-18T04:10:19;101706.44;;;22.40;24.03
74573;BME280;63071;51.526;-0.134;2022-12-18T04:12:45;101708.00;;;22.41;23.81
74573;BME280;63071;51.526;-0.134;2022-12-18T04:15:12;101706.88;;;22.42;24.05
74573;BME280;63071;51.526;-0.134;2022-12-18T04:17:43;101704.22;;;22.42;23.81
74573;BME280;63071;51.526;-0.134;2022-12-18T04:20:12;101704.56;;;22.40;24.03
74573;BME280;63071;51.526;-0.134;2022-12-18T04:22:37;101704.91;;;22.39;23.57
74573;BME280;63071;51.526;-0.134;2022-12-18T04:25:03;101705.34;;;22.41;24.02
74573;BME280;63071;51.526;-0.134;2022-12-18T04:27:28;101697.78;;;22.43;24.04
74573;BME280;63071;51.526;-0.134;2022-12-18T04:29:54;101688.81;;;22.35;23.73
74573;BME280;63071;51.526;-0.134;2022-12-18T04:32:19;101703.72;;;22.36;23.67
74573;BME280;63071;51.526;-0.134;2022-12-18T04:34:45;101707.56;;;22.39;23.74
74573;BME280;63071;51.526;-0.134;2022-12-18T04:37:10;101692.03;;;22.41;23.68
74573;BME280;63071;51.526;-0.134;2022-12-18T04:39:36;101683.94;;;22.37;23.50
74573;BME280;63071;51.526;-0.134;2022-12-18T04:42:02;101685.94;;;22.40;23.65
74573;BME280;63071;51.526;-0.134;2022-12-18T04:44:28;101693.50;;;22.38;23.72
74573;BME280;63071;51.526;-0.134;2022-12-18T04:46:53;101685.56;;;22.42;24.02
74573;BME280;63071;51.526;-0.134;2022-12-18T04:49:18;101680.84;;;22.35;24.16
74573;BME280;63071;51.526;-0.134;2022-12-18T04:51:44;101674.41;;;22.36;23.36
74573;BME280;63071;51.526;-0.134;2022-12-18T04:54:09;101677.56;;;22.42;23.87
74573;BME280;63071;51.526;-0.134;2022-12-18T04:56:35;101669.16;;;22.40;23.70
74573;BME280;63071;51.526;-0.134;2022-12-18T04:59:00;101663.81;;;22.40;24.09
74573;BME280;63071;51.526;-0.134;2022-12-18T05:01:26;101670.72;;;22.41;23.65
74573;BME280;63071;51.526;-0.134;2022-12-18T05:03:51;101657.72;;;22.39;23.84
74573;BME280;63071;51.526;-0.134;2022-12-18T05:06:17;101646.31;;;22.39;24.03
74573;BME280;63071;51.526;-0.134;2022-12-18T05:08:42;101637.56;;;22.38;23.64
74573;BME280;63071;51.526;-0.134;2022-12-18T05:11:11;101633.41;;;22.41;23.63
74573;BME280;63071;51.526;-0.134;2022-12-18T05:13:37;101629.19;;;22.40;24.04
74573;BME280;63071;51.526;-0.134;2022-12-18T05:16:04;101618.09;;;22.38;23.87
74573;BME280;63071;51.526;-0.134;2022-12-18T05:18:30;101626.09;;;22.38;23.80
74573;BME280;63071;51.526;-0.134;2022-12-18T05:20:56;101623.44;;;22.38;23.87
74573;BME280;63071;51.526;-0.134;2022-12-18T05:23:23;101612.88;;;22.42;24.05
74573;BME280;63071;51.526;-0.134;2022-12-18T05:25:54;101598.78;;;22.41;24.08
74573;BME280;63071;51.526;-0.134;2022-12-18T05:28:21;101600.25;;;22.38;23.71
74573;BME280;63071;51.526;-0.134;2022-12-18T05:30:48;101602.94;;;22.38;23.87
74573;BME280;63071;51.526;-0.134;2022-12-18T05:33:14;101600.69;;;22.40;24.10
74573;BME280;63071;51.526;-0.134;2022-12-18T05:35:40;101601.03;;;22.39;23.92
74573;BME280;63071;51.526;-0.134;2022-12-18T05:38:05;101595.00;;;22.42;24.00
74573;BME280;63071;51.526;-0.134;2022-12-18T05:40:31;101597.66;;;22.42;23.43
74573;BME280;63071;51.526;-0.134;2022-12-18T05:42:56;101578.16;;;22.38;23.47
74573;BME280;63071;51.526;-0.134;2022-12-18T05:45:22;101582.28;;;22.35;23.88
74573;BME280;63071;51.526;-0.134;2022-12-18T05:47:47;101572.41;;;22.36;24.03
74573;BME280;63071;51.526;-0.134;2022-12-18T05:50:13;101570.88;;;22.35;24.05
74573;BME280;63071;51.526;-0.134;2022-12-18T05:52:38;101575.59;;;22.42;23.60
74573;BME280;63071;51.526;-0.134;2022-12-18T05:55:04;101578.59;;;22.40;23.68
74573;BME280;63071;51.526;-0.134;2022-12-18T05:57:30;101593.03;;;22.39;23.56
74573;BME280;63071;51.526;-0.134;2022-12-18T05:59:55;101583.84;;;22.36;23.81
74573;BME280;63071;51.526;-0.134;2022-12-18T06:02:21;101575.50;;;22.38;24.06
74573;BME280;63071;51.526;-0.134;2022-12-18T06:04:46;101581.63;;;22.38;23.46
74573;BME280;63071;51.526;-0.134;2022-12-18T06:07:12;101577.47;;;22.41;23.31
74573;BME280;63071;51.526;-0.134;2022-12-18T06:09:37;101566.41;;;22.39;23.73
74573;BME280;63071;51.526;-0.134;2022-12-18T06:12:03;101567.16;;;22.39;24.05
74573;BME280;63071;51.526;-0.134;2022-12-18T06:14:29;101552.81;;;22.44;23.38
74573;BME280;63071;51.526;-0.134;2022-12-18T06:16:54;101546.63;;;22.40;23.64
74573;BME280;63071;51.526;-0.134;2022-12-18T06:19:20;101556.94;;;22.42;23.61
74573;BME280;63071;51.526;-0.134;2022-12-18T06:21:46;101563.31;;;22.37;23.82
74573;BME280;63071;51.526;-0.134;2022-12-18T06:24:11;101542.44;;;22.39;23.70
74573;BME280;63071;51.526;-0.134;2022-12-18T06:26:38;101533.66;;;22.38;23.83
74573;BME280;63071;51.526;-0.134;2022-12-18T06:29:04;101517.75;;;22.42;23.81
74573;BME280;63071;51.526;-0.134;2022-12-18T06:31:29;101513.22;;;22.43;23.58
74573;BME280;63071;51.526;-0.134;2022-12-18T06:33:55;101515.09;;;22.42;23.42
74573;BME280;63071;51.526;-0.134;2022-12-18T06:36:20;101515.03;;;22.38;23.96
74573;BME280;63071;51.526;-0.134;2022-12-18T06:38:46;101504.72;;;22.37;23.77
74573;BME280;63071;51.526;-0.134;2022-12-18T06:41:14;101499.38;;;22.37;23.87
74573;BME280;63071;51.526;-0.134;2022-12-18T06:43:40;101484.16;;;22.37;23.56
74573;BME280;63071;51.526;-0.134;2022-12-18T06:46:06;101484.59;;;22.39;24.05
74573;BME280;63071;51.526;-0.134;2022-12-18T06:48:33;101484.25;;;22.41;23.57
74573;BME280;63071;51.526;-0.134;2022-12-18T06:50:58;101484.59;;;22.39;23.35
74573;BME280;63071;51.526;-0.134;2022-12-18T06:53:24;101492.59;;;22.39;23.93
74573;BME280;63071;51.526;-0.134;2022-12-18T06:55:50;101496.44;;;22.42;23.65
74573;BME280;63071;51.526;-0.134;2022-12-18T06:58:15;101505.81;;;22.36;24.10
74573;BME280;63071;51.526;-0.134;2022-12-18T07:00:41;101507.03;;;22.38;24.03
74573;BME280;63071;51.526;-0.134;2022-12-18T07:03:06;101500.50;;;22.36;23.57
74573;BME280;63071;51.526;-0.134;2022-12-18T07:05:32;101492.50;;;22.36;23.82
74573;BME280;63071;51.526;-0.134;2022-12-18T07:07:58;101489.41;;;22.34;23.84
74573;BME280;63071;51.526;-0.134;2022-12-18T07:10:23;101480.75;;;22.37;24.01
74573;BME280;63071;51.526;-0.134;2022-12-18T07:12:49;101474.28;;;22.38;23.99
74573;BME280;63071;51.526;-0.134;2022-12-18T07:15:14;101474.28;;;22.38;24.04
74573;BME280;63071;51.526;-0.134;2022-12-18T07:17:40;101472.75;;;22.37;23.88
74573;BME280;63071;51.526;-0.134;2022-12-18T07:20:06;101469.66;;;22.35;24.04
74573;BME280;63071;51.526;-0.134;2022-12-18T07:22:31;101462.34;;;22.32;23.88
74573;BME280;63071;51.526;-0.134;2022-12-18T07:24:57;101467.84;;;22.39;23.49
74573;BME280;63071;51.526;-0.134;2022-12-18T07:27:23;101474.28;;;22.38;23.78
74573;BME280;63071;51.526;-0.134;2022-12-18T07:29:48;101478.16;;;22.40;23.47
74573;BME280;63071;51.526;-0.134;2022-12-18T07:32:14;101475.00;;;22.35;23.66
74573;BME280;63071;51.526;-0.134;2022-12-18T07:34:39;101460.53;;;22.36;23.92
74573;BME280;63071;51.526;-0.134;2022-12-18T07:37:05;101467.84;;;22.39;23.62
74573;BME280;63071;51.526;-0.134;2022-12-18T07:39:31;101457.88;;;22.36;23.45
74573;BME280;63071;51.526;-0.134;2022-12-18T07:41:56;101454.44;;;22.35;23.96
74573;BME280;63071;51.526;-0.134;2022-12-18T07:44:40;101449.03;;;22.32;23.51
74573;BME280;63071;51.526;-0.134;2022-12-18T07:47:05;101437.69;;;22.35;23.42
74573;BME280;63071;51.526;-0.134;2022-12-18T07:49:34;101439.22;;;22.36;23.96
74573;BME280;63071;51.526;-0.134;2022-12-18T07:51:59;101438.47;;;22.35;23.81
74573;BME280;63071;51.526;-0.134;2022-12-18T07:54:24;101444.13;;;22.34;23.90
74573;BME280;63071;51.526;-0.134;2022-12-18T07:56:53;101434.63;;;22.33;23.88
74573;BME280;63071;51.526;-0.134;2022-12-18T07:59:19;101429.38;;;22.36;23.73
74573;BME280;63071;51.526;-0.134;2022-12-18T08:01:44;101417.59;;;22.37;23.93
74573;BME280;63071;51.526;-0.134;2022-12-18T08:04:09;101415.69;;;22.38;23.29
74573;BME280;63071;51.526;-0.134;2022-12-18T08:06:35;101426.97;;;22.31;24.00
74573;BME280;63071;51.526;-0.134;2022-12-18T08:09:00;101424.38;;;22.35;23.41
74573;BME280;63071;51.526;-0.134;2022-12-18T08:11:28;101423.25;;;22.36;23.83
74573;BME280;63071;51.526;-0.134;2022-12-18T08:13:53;101417.06;;;22.32;24.03
74573;BME280;63071;51.526;-0.134;2022-12-18T08:16:20;101402.38;;;22.38;23.50
74573;BME280;63071;51.526;-0.134;2022-12-18T08:18:46;101411.16;;;22.38;23.63
74573;BME280;63071;51.526;-0.134;2022-12-18T08:21:12;101426.34;;;22.38;24.01
74573;BME280;63071;51.526;-0.134;2022-12-18T08:23:39;101428.25;;;22.37;24.03
74573;BME280;63071;51.526;-0.134;2022-12-18T08:26:05;101439.31;;;22.39;23.71
74573;BME280;63071;51.526;-0.134;2022-12-18T08:28:30;101434.41;;;22.42;23.91
74573;BME280;63071;51.526;-0.134;2022-12-18T08:30:56;101435.53;;;22.40;23.39
74573;BME280;63071;51.526;-0.134;2022-12-18T08:33:21;101435.88;;;22.39;23.97
74573;BME280;63071;51.526;-0.134;2022-12-18T08:35:47;101433.91;;;22.36;23.62
74573;BME280;63071;51.526;-0.134;2022-12-18T08:38:12;101440.09;;;22.40;23.71
74573;BME280;63071;51.526;-0.134;2022-12-18T08:40:38;101444.97;;;22.38;23.39
74573;BME280;63071;51.526;-0.134;2022-12-18T08:43:03;101438.56;;;22.39;23.96
74573;BME280;63071;51.526;-0.134;2022-12-18T08:45:47;101439.75;;;22.42;23.95
74573;BME280;63071;51.526;-0.134;2022-12-18T08:48:16;101438.91;;;22.37;23.80
74573;BME280;63071;51.526;-0.134;2022-12-18T08:50:41;101437.78;;;22.38;23.63
74573;BME280;63071;51.526;-0.134;2022-12-18T08:53:07;101430.91;;;22.37;23.55
74573;BME280;63071;51.526;-0.134;2022-12-18T08:55:32;101427.31;;;22.30;24.06
74573;BME280;63071;51.526;-0.134;2022-12-18T08:57:58;101437.00;;;22.38;23.82
74573;BME280;63071;51.526;-0.134;2022-12-18T09:00:23;101439.22;;;22.36;23.59
74573;BME280;63071;51.526;-0.134;2022-12-18T09:02:49;101431.25;;;22.36;23.95
74573;BME280;63071;51.526;-0.134;2022-12-18T09:05:14;101427.72;;;22.32;24.04
74573;BME280;63071;51.526;-0.134;2022-12-18T09:07:40;101419.47;;;22.37;23.74
74573;BME280;63071;51.526;-0.134;2022-12-18T09:10:05;101422.16;;;22.37;23.56
74573;BME280;63071;51.526;-0.134;2022-12-18T09:12:31;101423.25;;;22.36;23.70
74573;BME280;63071;51.526;-0.134;2022-12-18T09:14:56;101409.50;;;22.34;23.52
74573;BME280;63071;51.526;-0.134;2022-12-18T09:17:22;101427.91;;;22.39;23.98
74573;BME280;63071;51.526;-0.134;2022-12-18T09:19:47;101436.22;;;22.37;23.86
74573;BME280;63071;51.526;-0.134;2022-12-18T09:22:13;101433.91;;;22.36;23.63
74573;BME280;63071;51.526;-0.134;2022-12-18T09:24:38;101431.66;;;22.38;23.45
74573;BME280;63071;51.526;-0.134;2022-12-18T09:27:04;101418.00;;;22.39;23.94
74573;BME280;63071;51.526;-0.134;2022-12-18T09:29:30;101431.25;;;22.36;23.71
74573;BME280;63071;51.526;-0.134;2022-12-18T09:31:55;101428.25;;;22.37;24.06
74573;BME280;63071;51.526;-0.134;2022-12-18T09:34:21;101431.00;;;22.41;23.51
74573;BME280;63071;51.526;-0.134;2022-12-18T09:36:47;101433.66;;;22.41;23.69
74573;BME280;63071;51.526;-0.134;2022-12-18T09:39:12;101440.44;;;22.38;23.74
74573;BME280;63071;51.526;-0.134;2022-12-18T09:44:22;101448.50;;;22.42;23.54
74573;BME280;63071;51.526;-0.134;2022-12-18T09:46:59;101446.53;;;22.39;23.23
74573;BME280;63071;51.526;-0.134;2022-12-18T09:49:32;101446.88;;;22.37;23.72
74573;BME280;63071;51.526;-0.134;2022-12-18T09:52:05;101436.31;;;22.41;23.80
74573;BME280;63071;51.526;-0.134;2022-12-18T09:54:39;101434.41;;;22.42;23.76
74573;BME280;63071;51.526;-0.134;2022-12-18T09:57:06;101444.22;;;22.37;23.36
74573;BME280;63071;51.526;-0.134;2022-12-18T09:59:39;101438.91;;;22.37;23.57
74573;BME280;63071;51.526;-0.134;2022-12-18T10:02:20;101443.88;;;22.39;23.63
74573;BME280;63071;51.526;-0.134;2022-12-18T10:05:04;101441.13;;;22.35;23.80
74573;BME280;63071;51.526;-0.134;2022-12-18T10:10:42;101446.53;;;22.39;24.00
74573;BME280;63071;51.526;-0.134;2022-12-18T10:13:31;101441.22;;;22.39;24.01
74573;BME280;63071;51.526;-0.134;2022-12-18T10:24:29;101432.88;;;22.40;23.93
74573;BME280;63071;51.526;-0.134;2022-12-18T10:27:16;101414.91;;;22.37;23.44
74573;BME280;63071;51.526;-0.134;2022-12-18T10:29:44;101426.34;;;22.38;23.53
74573;BME280;63071;51.526;-0.134;2022-12-18T10:32:19;101419.91;;;22.39;23.88
74573;BME280;63071;51.526;-0.134;2022-12-18T10:34:50;101426.41;;;22.42;23.79
74573;BME280;63071;51.526;-0.134;2022-12-18T10:37:19;101396.47;;;22.29;23.34
74573;BME280;63071;51.526;-0.134;2022-12-18T10:39:47;101404.97;;;22.34;23.99
74573;BME280;63071;51.526;-0.134;2022-12-18T10:42:29;101393.19;;;22.35;23.87
74573;BME280;63071;51.526;-0.134;2022-12-18T10:47:34;101379.88;;;22.35;23.65
74573;BME280;63071;51.526;-0.134;2022-12-18T10:50:01;101380.38;;;22.41;23.38
74573;BME280;63071;51.526;-0.134;2022-12-18T10:52:27;101368.53;;;22.38;23.57
74573;BME280;63071;51.526;-0.134;2022-12-18T10:54:55;101363.69;;;22.44;23.91
74573;BME280;63071;51.526;-0.134;2022-12-18T10:57:38;101357.88;;;22.38;23.93
74573;BME280;63071;51.526;-0.134;2022-12-18T11:00:27;101356.41;;;22.41;24.13
74573;BME280;63071;51.526;-0.134;2022-12-18T11:02:53;101345.41;;;22.43;23.64
74573;BME280;63071;51.526;-0.134;2022-12-18T11:05:33;101340.00;;;22.39;23.46
74573;BME280;63071;51.526;-0.134;2022-12-18T11:08:00;101321.69;;;22.37;23.49
74573;BME280;63071;51.526;-0.134;2022-12-18T11:10:30;101315.28;;;22.38;23.16
74573;BME280;63071;51.526;-0.134;2022-12-18T11:13:30;101310.72;;;22.39;23.74
74573;BME280;63071;51.526;-0.134;2022-12-18T11:15:54;101298.91;;;22.40;23.39
74573;BME280;63071;51.526;-0.134;2022-12-18T11:18:33;101302.38;;;22.40;23.48
74573;BME280;63071;51.526;-0.134;2022-12-18T11:21:09;101306.16;;;22.39;23.81
74573;BME280;63071;51.526;-0.134;2022-12-18T11:23:36;101303.56;;;22.43;23.93
74573;BME280;63071;51.526;-0.134;2022-12-18T11:26:08;101299.72;;;22.40;23.71
74573;BME280;63071;51.526;-0.134;2022-12-18T11:28:47;101288.97;;;22.37;24.03
74573;BME280;63071;51.526;-0.134;2022-12-18T11:31:28;101289.75;;;22.37;24.10
74573;BME280;63071;51.526;-0.134;2022-12-18T11:34:29;101268.78;;;22.36;23.57
74573;BME280;63071;51.526;-0.134;2022-12-18T11:36:58;101269.28;;;22.42;23.71
74573;BME280;63071;51.526;-0.134;2022-12-18T11:39:51;101267.78;;;22.44;23.55
74573;BME280;63071;51.526;-0.134;2022-12-18T11:42:45;101260.53;;;22.41;23.69
74573;BME280;63071;51.526;-0.134;2022-12-18T11:47:49;101249.09;;;22.40;23.28
74573;BME280;63071;51.526;-0.134;2022-12-18T11:50:25;101257.13;;;22.44;23.50
74573;BME280;63071;51.526;-0.134;2022-12-18T11:52:51;101257.50;;;22.43;23.78
74573;BME280;63071;51.526;-0.134;2022-12-18T11:58:51;101251.81;;;22.44;23.44
74573;BME280;63071;51.526;-0.134;2022-12-18T12:04:17;101232.06;;;22.45;24.10
74573;BME280;63071;51.526;-0.134;2022-12-18T12:09:39;101222.50;;;22.44;23.61
74573;BME280;63071;51.526;-0.134;2022-12-18T12:18:02;101220.34;;;22.50;23.78
74573;BME280;63071;51.526;-0.134;2022-12-18T12:21:05;101204.34;;;22.50;23.42
74573;BME280;63071;51.526;-0.134;2022-12-18T12:26:23;101162.47;;;22.47;23.46
74573;BME280;63071;51.526;-0.134;2022-12-18T12:29:10;101159.00;;;22.46;23.77
74573;BME280;63071;51.526;-0.134;2022-12-18T12:32:22;101156.34;;;22.46;23.44
74573;BME280;63071;51.526;-0.134;2022-12-18T12:38:13;101148.66;;;22.41;24.01
74573;BME280;63071;51.526;-0.134;2022-12-18T12:40:47;101143.75;;;22.43;23.75
74573;BME280;63071;51.526;-0.134;2022-12-18T12:46:03;101138.50;;;22.47;23.55
74573;BME280;63071;51.526;-0.134;2022-12-18T12:53:53;101141.50;;;22.45;23.69
74573;BME280;63071;51.526;-0.134;2022-12-18T12:56:21;101132.78;;;22.48;23.54
74573;BME280;63071;51.526;-0.134;2022-12-18T13:07:38;101122.13;;;22.48;23.75
74573;BME280;63071;51.526;-0.134;2022-12-18T13:13:15;101100.81;;;22.48;23.57
74573;BME280;63071;51.526;-0.134;2022-12-18T13:15:44;101096.63;;;22.47;23.65
74573;BME280;63071;51.526;-0.134;2022-12-18T13:25:45;101065.44;;;22.48;24.00
74573;BME280;63071;51.526;-0.134;2022-12-18T13:28:13;101063.53;;;22.48;24.19
74573;BME280;63071;51.526;-0.134;2022-12-18T13:30:48;101050.94;;;22.45;24.00
74573;BME280;63071;51.526;-0.134;2022-12-18T13:41:24;101038.78;;;22.48;23.89
74573;BME280;63071;51.526;-0.134;2022-12-18T13:43:52;101033.13;;;22.49;23.80
74573;BME280;63071;51.526;-0.134;2022-12-18T13:49:22;101025.13;;;22.49;23.80
74573;BME280;63071;51.526;-0.134;2022-12-18T13:51:54;101028.13;;;22.48;23.66
74573;BME280;63071;51.526;-0.134;2022-12-18T13:56:54;101007.97;;;22.47;24.11
74573;BME280;63071;51.526;-0.134;2022-12-18T13:59:22;101003.41;;;22.47;24.10
74573;BME280;63071;51.526;-0.134;2022-12-18T14:01:53;100998.84;;;22.48;23.75
74573;BME280;63071;51.526;-0.134;2022-12-18T14:06:54;100997.72;;;22.49;24.21
74573;BME280;63071;51.526;-0.134;2022-12-18T14:09:34;101000.75;;;22.47;23.81
74573;BME280;63071;51.526;-0.134;2022-12-18T14:12:01;101006.13;;;22.51;23.80
74573;BME280;63071;51.526;-0.134;2022-12-18T14:14:49;100998.13;;;22.51;24.26
74573;BME280;63071;51.526;-0.134;2022-12-18T14:17:16;101003.47;;;22.51;24.23
74573;BME280;63071;51.526;-0.134;2022-12-18T14:19:46;100991.25;;;22.50;24.34
74573;BME280;63071;51.526;-0.134;2022-12-18T14:22:21;100988.19;;;22.48;23.86
74573;BME280;63071;51.526;-0.134;2022-12-18T14:25:29;100996.59;;;22.50;23.70
74573;BME280;63071;51.526;-0.134;2022-12-18T14:30:36;100991.25;;;22.50;24.23
74573;BME280;63071;51.526;-0.134;2022-12-18T14:33:13;100988.59;;;22.50;24.02
74573;BME280;63071;51.526;-0.134;2022-12-18T14:35:53;100982.09;;;22.47;23.95